Time;durP1;ratioP1;P1;durP2;ratioP2;P2;SDS_P1;SDS_P2;PMS_P1;PMS_P2;Temp;Humidity;BMP_temperature;BMP_pressure;BME280_temperature;BME280_humidity;BME280_pressure;Samples;Min_cycle;Max_cycle;Signal;HPM_P1;HPM_P2
2021/06/19 00:01:30;;;;;;;9.95;4.43;;;;;;;22.84;88.63;100276.88;5212365;28;20021;-77
2021/06/19 00:04:00;;;;;;;9.25;4.20;;;;;;;22.65;89.27;100267.16;5213162;28;20028;-77
2021/06/19 00:06:31;;;;;;;7.43;4.00;;;;;;;22.66;89.11;100275.03;5211471;28;20113;-77
2021/06/19 00:09:01;;;;;;;7.43;4.30;;;;;;;22.69;88.85;100272.09;5214761;28;20108;-77
2021/06/19 00:11:31;;;;;;;7.78;4.05;;;;;;;22.80;87.56;100280.81;5214050;28;20083;-77
2021/06/19 00:14:01;;;;;;;7.93;4.33;;;;;;;22.80;86.59;100274.63;5210889;28;20426;-77
2021/06/19 00:16:32;;;;;;;5.65;3.80;;;;;;;22.90;87.09;100280.81;5213784;28;20267;-77
2021/06/19 00:19:03;;;;;;;6.50;4.40;;;;;;;23.03;85.32;100281.38;5221998;28;20025;-77
2021/06/19 00:21:33;;;;;;;7.05;4.20;;;;;;;22.85;87.07;100286.56;5214624;28;20781;-77
2021/06/19 00:24:04;;;;;;;5.53;4.03;;;;;;;22.76;87.55;100284.72;5214899;28;20052;-77
2021/06/19 00:26:35;;;;;;;6.90;4.10;;;;;;;22.77;87.27;100281.09;5212270;28;20272;-77
2021/06/19 00:29:05;;;;;;;7.55;4.40;;;;;;;22.53;88.57;100282.44;5213629;28;20032;-77
2021/06/19 00:31:36;;;;;;;5.13;4.30;;;;;;;22.52;89.30;100285.22;5212881;28;20487;-77
2021/06/19 00:34:06;;;;;;;8.23;4.57;;;;;;;22.38;89.53;100282.91;5212132;28;20359;-77
2021/06/19 00:36:36;;;;;;;12.80;4.60;;;;;;;22.35;89.43;100283.19;5212829;28;20306;-77
2021/06/19 00:39:07;;;;;;;10.15;4.80;;;;;;;22.45;89.07;100268.94;5211342;28;20372;-77
2021/06/19 00:41:38;;;;;;;7.55;4.43;;;;;;;22.53;88.05;100273.59;5213021;28;20056;-77
2021/06/19 00:44:17;;;;;;;6.78;4.40;;;;;;;22.34;90.36;100268.19;5210238;28;20029;-77
2021/06/19 00:46:52;;;;;;;9.35;4.43;;;;;;;22.24;90.21;100259.34;5214480;28;20487;-77
2021/06/19 00:49:23;;;;;;;6.63;4.63;;;;;;;22.28;89.69;100266.91;5211319;28;20017;-77
2021/06/19 00:51:54;;;;;;;4.85;3.83;;;;;;;22.25;90.03;100271.69;5214240;28;20667;-77
2021/06/19 00:54:24;;;;;;;7.03;4.40;;;;;;;22.15;90.83;100271.66;5206413;28;20144;-76
2021/06/19 00:56:55;;;;;;;9.30;4.50;;;;;;;22.31;89.91;100272.00;5207808;28;20045;-77
2021/06/19 00:59:26;;;;;;;6.38;4.25;;;;;;;22.26;90.32;100278.69;5210001;28;20542;-77
2021/06/19 01:01:56;;;;;;;6.78;4.03;;;;;;;22.34;89.77;100270.84;5209812;28;20022;-77
2021/06/19 01:04:26;;;;;;;7.20;3.97;;;;;;;22.39;89.29;100279.34;5212234;28;20121;-77
2021/06/19 01:06:59;;;;;;;6.03;4.00;;;;;;;22.33;90.03;100279.81;5214269;28;20021;-77
2021/06/19 01:09:29;;;;;;;7.55;4.55;;;;;;;22.21;89.72;100275.56;5209925;28;20041;-77
2021/06/19 01:11:59;;;;;;;6.10;4.22;;;;;;;22.19;90.10;100288.19;5213579;28;20509;-77
2021/06/19 01:14:30;;;;;;;7.15;4.43;;;;;;;22.12;90.26;100279.88;5209840;28;20112;-77
2021/06/19 01:17:00;;;;;;;7.32;4.45;;;;;;;22.10;90.64;100273.03;5213704;28;20032;-77
2021/06/19 01:19:30;;;;;;;9.82;4.72;;;;;;;22.15;89.84;100271.66;5211604;28;20057;-77
2021/06/19 01:22:01;;;;;;;5.88;4.38;;;;;;;22.29;88.90;100273.09;5213317;28;20645;-77
2021/06/19 01:24:32;;;;;;;9.40;4.63;;;;;;;22.14;89.62;100277.09;5211910;28;20029;-77
2021/06/19 01:27:03;;;;;;;8.27;4.75;;;;;;;22.00;89.84;100273.00;5213685;28;20032;-77
2021/06/19 01:29:33;;;;;;;8.02;4.57;;;;;;;22.15;89.10;100265.47;5212507;28;20037;-77
2021/06/19 01:32:04;;;;;;;6.18;4.63;;;;;;;22.08;89.59;100269.66;5211098;28;20036;-77
2021/06/19 01:34:34;;;;;;;8.45;4.65;;;;;;;22.08;89.96;100265.16;5212356;28;20104;-77
2021/06/19 01:37:04;;;;;;;9.02;5.15;;;;;;;21.88;91.44;100279.38;5211266;28;20138;-77
2021/06/19 01:39:34;;;;;;;9.80;4.50;;;;;;;21.85;91.17;100284.97;5212693;28;20116;-77
2021/06/19 01:42:05;;;;;;;9.40;4.70;;;;;;;21.92;91.05;100285.28;5214668;28;20357;-77
2021/06/19 01:44:35;;;;;;;7.93;4.60;;;;;;;22.02;90.25;100289.66;5212004;28;20327;-77
2021/06/19 01:47:06;;;;;;;10.90;4.80;;;;;;;21.87;91.39;100292.78;5210445;28;20072;-77
2021/06/19 01:49:37;;;;;;;9.73;4.95;;;;;;;21.78;91.58;100294.44;5210113;28;20057;-77
2021/06/19 01:52:07;;;;;;;8.57;4.55;;;;;;;21.96;90.11;100298.19;5212159;28;20048;-77
2021/06/19 01:54:40;;;;;;;9.25;4.93;;;;;;;21.86;91.60;100294.63;5213814;28;20036;-77
2021/06/19 01:57:10;;;;;;;7.40;4.90;;;;;;;21.78;91.10;100298.94;5216511;28;20430;-77
2021/06/19 01:59:41;;;;;;;8.45;5.07;;;;;;;21.83;90.79;100299.38;5214189;28;20035;-77
2021/06/19 02:02:11;;;;;;;10.52;4.53;;;;;;;21.94;90.41;100297.47;5214783;28;20479;-77
2021/06/19 02:04:41;;;;;;;8.23;4.50;;;;;;;22.02;89.92;100297.66;5215652;28;20061;-77
2021/06/19 02:07:11;;;;;;;9.23;5.20;;;;;;;21.80;91.58;100289.84;5214341;28;20275;-77
2021/06/19 02:09:41;;;;;;;15.10;5.53;;;;;;;21.41;93.99;100295.03;5214199;28;20359;-77
2021/06/19 02:12:12;;;;;;;9.10;4.93;;;;;;;21.86;90.87;100280.47;5215425;28;20794;-77
2021/06/19 02:14:42;;;;;;;11.98;4.90;;;;;;;21.77;90.84;100276.78;5213378;28;20370;-77
2021/06/19 02:17:12;;;;;;;10.50;5.27;;;;;;;21.63;93.27;100292.25;5214777;28;20036;-76
2021/06/19 02:19:43;;;;;;;8.55;4.57;;;;;;;21.75;91.41;100285.88;5213882;28;20275;-77
2021/06/19 02:22:13;;;;;;;7.68;4.97;;;;;;;21.83;91.57;100286.91;5213408;28;20128;-77
2021/06/19 02:24:43;;;;;;;11.05;5.35;;;;;;;21.81;91.66;100288.00;5211961;28;20033;-77
2021/06/19 02:27:15;;;;;;;8.82;5.25;;;;;;;21.89;91.61;100302.34;5210882;28;20051;-77
2021/06/19 02:29:45;;;;;;;9.57;5.30;;;;;;;22.06;89.35;100295.56;5214472;28;20040;-77
2021/06/19 02:32:16;;;;;;;9.38;5.00;;;;;;;21.96;90.66;100300.00;5213412;28;20025;-77
2021/06/19 02:34:46;;;;;;;10.52;4.95;;;;;;;22.11;89.26;100301.34;5214660;28;20032;-77
2021/06/19 02:37:16;;;;;;;9.10;4.95;;;;;;;22.38;87.82;100298.91;5213881;28;20024;-77
2021/06/19 02:39:47;;;;;;;10.55;5.18;;;;;;;22.32;88.20;100305.63;5212348;28;20022;-77
2021/06/19 02:42:17;;;;;;;9.75;4.70;;;;;;;22.45;87.67;100321.41;5214157;28;20029;-77
2021/06/19 02:44:48;;;;;;;6.93;5.00;;;;;;;22.28;88.79;100309.50;5214897;28;20110;-77
2021/06/19 02:47:18;;;;;;;6.50;4.65;;;;;;;22.32;89.25;100313.63;5212718;28;20098;-77
2021/06/19 02:49:48;;;;;;;9.93;4.53;;;;;;;22.41;88.27;100314.66;5214931;28;20020;-77
2021/06/19 02:52:18;;;;;;;7.93;4.20;;;;;;;22.30;88.99;100317.38;5212485;28;20283;-77
2021/06/19 02:54:49;;;;;;;12.73;5.00;;;;;;;22.04;90.09;100322.31;5215329;28;20047;-77
2021/06/19 02:57:19;;;;;;;11.73;4.75;;;;;;;22.22;89.14;100325.22;5213645;28;20078;-77
2021/06/19 02:59:49;;;;;;;11.53;4.77;;;;;;;21.98;89.97;100316.69;5210714;28;20029;-77
2021/06/19 03:02:19;;;;;;;12.40;4.43;;;;;;;22.13;90.03;100326.00;5214725;28;20271;-77
2021/06/19 03:04:50;;;;;;;12.75;4.60;;;;;;;21.93;91.02;100322.38;5215248;28;20799;-77
2021/06/19 03:07:20;;;;;;;13.63;5.17;;;;;;;21.99;91.47;100329.88;5211488;28;20021;-77
2021/06/19 03:09:50;;;;;;;11.97;5.00;;;;;;;22.03;91.46;100325.97;5214704;28;20268;-77
2021/06/19 03:12:21;;;;;;;13.20;5.03;;;;;;;21.84;92.27;100325.00;5214211;28;20721;-77
2021/06/19 03:14:51;;;;;;;10.23;4.85;;;;;;;21.79;93.12;100325.41;5212535;28;20025;-77
2021/06/19 03:17:22;;;;;;;13.60;5.70;;;;;;;21.39;95.92;100329.72;5215453;28;20028;-77
2021/06/19 03:19:53;;;;;;;12.57;5.55;;;;;;;21.34;95.62;100323.94;5215484;28;20300;-77
2021/06/19 03:22:23;;;;;;;15.57;5.32;;;;;;;21.25;96.20;100330.00;5215708;28;20083;-77
2021/06/19 03:24:53;;;;;;;10.88;4.75;;;;;;;21.42;95.58;100328.63;5215453;28;20120;-77
2021/06/19 03:27:24;;;;;;;13.23;6.00;;;;;;;21.47;95.49;100327.25;5215430;28;20038;-77
2021/06/19 03:29:54;;;;;;;11.55;5.53;;;;;;;21.73;95.29;100327.75;5210640;28;20769;-77
2021/06/19 03:32:25;;;;;;;10.10;5.13;;;;;;;21.81;94.43;100326.13;5215087;28;20122;-77
2021/06/19 03:34:56;;;;;;;9.60;5.30;;;;;;;21.83;95.63;100329.50;5213818;28;20275;-77
2021/06/19 03:37:27;;;;;;;9.85;5.05;;;;;;;22.02;93.86;100323.41;5234127;28;20033;-77
2021/06/19 03:39:57;;;;;;;9.27;5.20;;;;;;;22.17;92.62;100322.09;5213751;28;20021;-77
2021/06/19 03:42:27;;;;;;;14.73;5.40;;;;;;;21.90;93.41;100325.31;5213694;28;20082;-77
2021/06/19 03:44:58;;;;;;;10.68;5.70;;;;;;;21.74;94.52;100324.13;5210098;28;20427;-77
2021/06/19 03:47:28;;;;;;;12.30;5.63;;;;;;;21.75;95.76;100331.13;5214318;28;20491;-77
2021/06/19 03:49:58;;;;;;;14.10;5.83;;;;;;;21.55;97.78;100330.09;5212783;28;20017;-77
2021/06/19 03:52:29;;;;;;;13.05;5.65;;;;;;;21.40;99.69;100336.72;5213151;28;20337;-77
2021/06/19 03:54:59;;;;;;;10.60;5.65;;;;;;;21.38;100.00;100343.16;5213681;28;20035;-77
2021/06/19 03:57:32;;;;;;;14.50;5.63;;;;;;;21.37;100.00;100338.81;5212435;28;20470;-77
2021/06/19 04:00:10;;;;;;;18.25;5.75;;;;;;;21.52;100.00;100341.00;5211134;28;20025;-77
2021/06/19 04:02:41;;;;;;;12.18;5.97;;;;;;;21.65;99.91;100340.84;5214041;28;20021;-77
2021/06/19 04:05:13;;;;;;;13.57;6.10;;;;;;;21.92;98.08;100334.00;5211125;28;20025;-77
2021/06/19 04:07:46;;;;;;;10.18;5.70;;;;;;;21.96;97.65;100334.59;5211996;28;20108;-77
2021/06/19 04:10:17;;;;;;;14.38;6.13;;;;;;;22.10;98.20;100326.28;5209684;28;20068;-77
2021/06/19 04:12:48;;;;;;;12.95;6.43;;;;;;;22.15;96.78;100340.88;5213508;28;20057;-77
2021/06/19 04:15:19;;;;;;;12.07;5.40;;;;;;;22.38;94.67;100338.84;5213353;28;20100;-77
2021/06/19 04:17:50;;;;;;;8.73;5.65;;;;;;;22.40;95.93;100335.13;5211894;28;20120;-77
2021/06/19 04:20:20;;;;;;;9.98;5.85;;;;;;;22.54;94.38;100333.88;5210084;28;20052;-77
2021/06/19 04:22:51;;;;;;;13.13;5.95;;;;;;;22.56;94.85;100334.63;5217017;28;20052;-77
2021/06/19 04:25:34;;;;;;;11.25;6.20;;;;;;;22.38;95.71;100333.53;5215599;28;20025;-77
2021/06/19 04:28:05;;;;;;;12.88;5.85;;;;;;;22.49;96.15;100338.78;5212371;28;20041;-77
2021/06/19 04:30:36;;;;;;;14.30;6.05;;;;;;;22.53;97.11;100340.19;5211117;28;20095;-77
2021/06/19 04:33:06;;;;;;;16.95;6.63;;;;;;;22.51;97.58;100347.50;5214245;28;20051;-77
2021/06/19 04:35:38;;;;;;;11.82;6.07;;;;;;;22.82;95.20;100347.31;5212788;28;20068;-77
2021/06/19 04:38:09;;;;;;;11.30;5.90;;;;;;;22.94;95.71;100340.84;5211054;28;20032;-77
2021/06/19 04:40:46;;;;;;;13.60;5.82;;;;;;;23.54;92.42;100349.47;5207650;28;20095;-77
2021/06/19 04:43:24;;;;;;;7.72;5.32;;;;;;;25.04;85.79;100353.59;5215678;28;20056;-76
2021/06/19 04:45:54;;;;;;;10.48;4.45;;;;;;;26.73;79.07;100342.16;5208640;28;20025;-77
2021/06/19 04:48:25;;;;;;;11.32;5.20;;;;;;;26.77;80.09;100340.84;5210336;28;20048;-77
2021/06/19 04:50:56;;;;;;;9.85;4.78;;;;;;;27.52;76.38;100335.31;5213308;28;20026;-77
2021/06/19 04:53:26;;;;;;;13.35;4.80;;;;;;;28.41;73.62;100344.94;5214928;28;20376;-78
2021/06/19 04:56:00;;;;;;;11.43;4.18;;;;;;;28.43;73.75;100347.44;5211276;28;20050;-77
2021/06/19 04:58:33;;;;;;;9.75;4.50;;;;;;;28.48;73.90;100351.28;5216591;28;20037;-77
2021/06/19 05:01:10;;;;;;;9.25;3.50;;;;;;;29.44;71.91;100351.63;5213355;28;20029;-77
2021/06/19 05:03:42;;;;;;;9.45;3.90;;;;;;;28.70;71.56;100349.69;5212493;28;20032;-77
2021/06/19 05:06:23;;;;;;;9.98;4.50;;;;;;;26.76;79.63;100357.94;5213608;28;20029;-77
2021/06/19 05:09:13;;;;;;;6.65;4.38;;;;;;;25.74;85.15;100361.63;5217427;28;20055;-77
2021/06/19 05:11:43;;;;;;;8.25;4.50;;;;;;;25.68;85.13;100367.63;5209962;28;20040;-77
2021/06/19 05:14:14;;;;;;;10.23;4.90;;;;;;;25.66;86.69;100374.97;5210554;28;20032;-77
2021/06/19 05:16:45;;;;;;;10.52;5.05;;;;;;;26.54;84.05;100378.31;5209719;28;20350;-77
2021/06/19 05:19:18;;;;;;;7.32;4.18;;;;;;;28.53;75.54;100373.16;5210127;28;20029;-77
2021/06/19 05:21:48;;;;;;;9.82;5.18;;;;;;;29.77;69.96;100381.88;5215896;28;20074;-77
2021/06/19 05:24:18;;;;;;;8.97;4.77;;;;;;;30.03;70.19;100385.03;5210413;28;20036;-77
2021/06/19 05:26:49;;;;;;;9.32;4.43;;;;;;;30.01;71.26;100389.75;5215809;28;20096;-77
2021/06/19 05:29:20;;;;;;;9.05;4.60;;;;;;;29.81;71.96;100388.59;5213043;28;20040;-78
2021/06/19 05:31:50;;;;;;;8.88;4.20;;;;;;;29.45;74.43;100403.66;5212725;28;20021;-78
2021/06/19 05:34:20;;;;;;;6.93;4.30;;;;;;;31.41;67.79;100393.84;5214479;28;20037;-78
2021/06/19 05:36:51;;;;;;;9.52;3.95;;;;;;;31.51;69.57;100405.16;5209833;28;20438;-78
2021/06/19 05:39:21;;;;;;;10.40;4.40;;;;;;;32.00;66.38;100391.69;5214336;28;20028;-77
2021/06/19 05:41:51;;;;;;;8.60;4.70;;;;;;;32.09;65.30;100394.09;5212298;28;20387;-77
2021/06/19 05:44:22;;;;;;;9.23;5.00;;;;;;;32.27;62.74;100397.16;5214159;28;20304;-77
2021/06/19 05:46:52;;;;;;;11.52;5.20;;;;;;;32.47;62.50;100406.25;5214322;28;20029;-78
2021/06/19 05:49:22;;;;;;;12.32;5.10;;;;;;;32.31;62.27;100408.41;5215097;28;20519;-77
2021/06/19 05:51:52;;;;;;;11.37;5.27;;;;;;;30.81;66.05;100415.91;5214828;28;20104;-77
2021/06/19 05:54:23;;;;;;;10.37;5.47;;;;;;;30.99;64.69;100406.41;5212177;28;20349;-77
2021/06/19 05:56:55;;;;;;;12.90;5.67;;;;;;;30.34;68.41;100408.16;5215180;28;20366;-77
2021/06/19 05:59:25;;;;;;;11.43;6.10;;;;;;;30.28;67.03;100410.75;5214445;28;20283;-77
2021/06/19 06:01:55;;;;;;;13.13;5.87;;;;;;;30.29;67.67;100409.72;5215650;28;20036;-77
2021/06/19 06:04:25;;;;;;;16.63;6.13;;;;;;;30.35;67.97;100403.59;5208682;28;20367;-77
2021/06/19 06:06:56;;;;;;;14.20;5.90;;;;;;;30.40;69.07;100406.59;5220068;28;20025;-77
2021/06/19 06:09:26;;;;;;;13.13;5.90;;;;;;;30.66;67.66;100407.84;5213404;28;20041;-77
2021/06/19 06:11:57;;;;;;;15.93;6.07;;;;;;;30.56;67.11;100420.72;5215037;28;20032;-77
2021/06/19 06:14:27;;;;;;;10.52;5.43;;;;;;;30.76;66.97;100424.56;5210273;28;20818;-78
2021/06/19 06:16:58;;;;;;;17.33;6.07;;;;;;;29.99;67.73;100434.94;5215090;28;20022;-77
2021/06/19 06:19:28;;;;;;;11.40;5.93;;;;;;;29.98;67.87;100439.50;5213728;28;20041;-77
2021/06/19 06:21:58;;;;;;;15.32;6.00;;;;;;;30.24;67.78;100433.75;5214800;28;20272;-77
2021/06/19 06:24:29;;;;;;;15.40;5.82;;;;;;;30.35;67.58;100449.47;5211349;28;20039;-77
2021/06/19 06:26:59;;;;;;;11.48;5.72;;;;;;;30.60;66.86;100451.75;5210613;28;20416;-77
2021/06/19 06:29:29;;;;;;;14.77;5.65;;;;;;;30.68;67.06;100462.47;5212092;28;20126;-77
2021/06/19 06:32:00;;;;;;;15.35;5.80;;;;;;;30.18;67.91;100483.00;5211235;28;20017;-77
2021/06/19 06:34:31;;;;;;;11.32;5.50;;;;;;;29.83;69.29;100486.28;5211132;28;20407;-76
2021/06/19 06:37:01;;;;;;;17.70;6.00;;;;;;;29.16;70.47;100485.13;5211344;28;20032;-77
2021/06/19 06:39:32;;;;;;;13.15;5.50;;;;;;;28.68;71.65;100488.97;5212054;28;20306;-76
2021/06/19 06:42:03;;;;;;;12.13;5.55;;;;;;;28.32;72.05;100477.75;5213152;28;20556;-76
2021/06/19 06:44:33;;;;;;;14.45;5.32;;;;;;;28.13;73.77;100482.63;5211127;28;20214;-76
2021/06/19 06:47:04;;;;;;;13.32;5.32;;;;;;;28.09;74.57;100486.66;5210390;28;20472;-76
2021/06/19 06:49:35;;;;;;;15.90;5.80;;;;;;;27.87;75.09;100504.28;5212685;28;20407;-76
2021/06/19 06:52:05;;;;;;;13.60;5.97;;;;;;;28.21;73.63;100501.41;5211688;28;20028;-76
2021/06/19 06:54:39;;;;;;;11.88;5.20;;;;;;;29.04;71.50;100501.84;5211167;28;20799;-76
2021/06/19 06:57:10;;;;;;;11.13;5.20;;;;;;;30.17;68.84;100492.13;5213837;28;20391;-76
2021/06/19 06:59:41;;;;;;;13.18;4.88;;;;;;;30.91;67.54;100493.78;5213741;28;20108;-77
2021/06/19 07:02:11;;;;;;;11.02;4.78;;;;;;;31.18;65.10;100487.72;5213323;28;20037;-77
2021/06/19 07:04:42;;;;;;;10.65;4.20;;;;;;;31.68;64.08;100503.94;5211538;28;20505;-77
2021/06/19 07:07:12;;;;;;;9.03;4.40;;;;;;;32.53;62.15;100483.97;5211005;28;20033;-77
2021/06/19 07:09:43;;;;;;;10.20;4.03;;;;;;;31.61;63.61;100484.09;5210522;28;20268;-77
2021/06/19 07:12:13;;;;;;;12.07;4.22;;;;;;;32.06;62.96;100488.31;5213949;28;20112;-77
2021/06/19 07:14:43;;;;;;;7.22;3.97;;;;;;;32.41;61.28;100487.41;5210875;28;20108;-77
2021/06/19 07:17:13;;;;;;;8.30;4.13;;;;;;;32.03;61.70;100486.84;5211212;28;20072;-77
2021/06/19 07:19:44;;;;;;;9.90;3.77;;;;;;;30.52;65.12;100494.16;5210868;28;20359;-77
2021/06/19 07:22:14;;;;;;;8.88;3.80;;;;;;;31.30;66.23;100494.31;5209702;28;20268;-77
2021/06/19 07:24:44;;;;;;;9.32;3.72;;;;;;;31.52;64.41;100489.81;5214098;28;20090;-77
2021/06/19 07:27:15;;;;;;;7.13;3.80;;;;;;;32.40;61.91;100496.56;5210893;28;20033;-77
2021/06/19 07:29:45;;;;;;;8.07;3.75;;;;;;;33.65;60.87;100496.06;5213170;28;21675;-78
2021/06/19 07:32:15;;;;;;;10.82;4.43;;;;;;;34.20;59.50;100492.25;5219641;28;20488;-77
2021/06/19 07:34:46;;;;;;;12.35;4.47;;;;;;;34.38;57.36;100498.72;5206761;28;20030;-77
2021/06/19 07:37:17;;;;;;;16.92;9.15;;;;;;;31.95;61.59;100511.31;5211286;28;20029;-77
2021/06/19 07:39:47;;;;;;;96.35;62.72;;;;;;;32.08;62.98;100506.00;5210447;28;20104;-77
2021/06/19 07:42:17;;;;;;;54.83;29.30;;;;;;;31.58;63.24;100503.41;5214466;28;20048;-77
2021/06/19 07:44:48;;;;;;;18.90;8.53;;;;;;;31.59;62.70;100510.47;5210811;28;20292;-77
2021/06/19 07:47:18;;;;;;;9.52;5.10;;;;;;;31.70;63.20;100518.09;5216696;28;20094;-77
2021/06/19 07:49:49;;;;;;;11.10;4.18;;;;;;;32.12;62.35;100501.06;5207777;28;20036;-78
2021/06/19 07:52:19;;;;;;;10.13;3.77;;;;;;;32.29;62.66;100492.53;5212433;28;20044;-77
2021/06/19 07:54:49;;;;;;;12.23;4.40;;;;;;;32.01;62.26;100501.59;5210194;28;20279;-78
2021/06/19 07:57:19;;;;;;;9.57;4.10;;;;;;;31.84;62.70;100502.88;5205656;28;20284;-77
2021/06/19 07:59:50;;;;;;;8.18;3.38;;;;;;;31.86;62.81;100509.75;5213186;28;20100;-77
2021/06/19 08:02:20;;;;;;;9.13;3.67;;;;;;;31.52;63.16;100504.13;5210912;28;20039;-77
2021/06/19 08:04:51;;;;;;;7.93;3.78;;;;;;;31.78;62.63;100507.19;5210877;28;20032;-77
2021/06/19 08:07:21;;;;;;;9.25;3.78;;;;;;;31.53;63.34;100510.41;5203176;28;20044;-77
2021/06/19 08:09:51;;;;;;;8.43;3.70;;;;;;;33.20;60.81;100510.28;5204686;28;20028;-77
2021/06/19 08:12:22;;;;;;;13.32;3.67;;;;;;;33.98;60.62;100507.03;5207562;28;20434;-78
2021/06/19 08:14:53;;;;;;;6.30;3.58;;;;;;;33.01;60.19;100504.72;5211058;28;20029;-78
2021/06/19 08:17:25;;;;;;;15.75;7.35;;;;;;;33.00;61.33;100503.88;5207780;28;20029;-78
2021/06/19 08:19:55;;;;;;;10.38;3.50;;;;;;;33.27;59.92;100507.59;5208690;28;20025;-78
2021/06/19 08:22:26;;;;;;;8.27;3.37;;;;;;;34.47;58.16;100492.03;5210747;28;20578;-78
2021/06/19 08:24:56;;;;;;;8.23;3.55;;;;;;;34.24;57.31;100493.50;5206313;28;20045;-77
2021/06/19 08:27:27;;;;;;;9.45;3.78;;;;;;;33.43;59.39;100502.69;5210398;28;20099;-77
2021/06/19 08:29:59;;;;;;;7.35;4.07;;;;;;;34.07;59.84;100489.50;5216869;28;20662;-78
2021/06/19 08:32:30;;;;;;;9.88;3.90;;;;;;;33.93;59.48;100495.94;5210197;28;20028;-78
2021/06/19 08:35:00;;;;;;;13.13;5.50;;;;;;;32.86;62.66;100500.47;5212759;28;20585;-78
2021/06/19 08:37:30;;;;;;;8.82;3.72;;;;;;;33.53;60.94;100494.16;5213725;28;20724;-78
2021/06/19 08:40:01;;;;;;;8.43;3.70;;;;;;;33.32;61.52;100505.13;5207561;28;20479;-78
2021/06/19 08:42:31;;;;;;;10.32;3.40;;;;;;;34.83;59.84;100506.03;5210980;28;20025;-78
2021/06/19 08:45:03;;;;;;;13.73;4.20;;;;;;;34.19;58.95;100512.31;5210902;28;20095;-78
2021/06/19 08:47:36;;;;;;;11.15;3.67;;;;;;;35.46;57.16;100508.78;5217571;28;20143;-78
2021/06/19 08:50:11;;;;;;;10.98;3.55;;;;;;;36.35;56.62;100499.50;5214800;28;20106;-78
2021/06/19 08:52:44;;;;;;;6.45;3.50;;;;;;;36.40;56.75;100502.38;5210646;28;20506;-78
2021/06/19 08:55:15;;;;;;;10.18;4.05;;;;;;;36.17;57.91;100504.84;5211079;28;20037;-78
2021/06/19 08:57:46;;;;;;;11.38;4.38;;;;;;;36.69;53.48;100506.34;5213375;28;20029;-78
2021/06/19 09:00:17;;;;;;;9.00;4.10;;;;;;;36.32;52.96;100499.91;5208915;28;20040;-78
2021/06/19 09:02:48;;;;;;;11.40;3.53;;;;;;;36.90;52.13;100511.34;5215265;28;20028;-78
2021/06/19 09:05:28;;;;;;;10.05;3.42;;;;;;;36.73;53.87;100508.38;5216945;28;20033;-78
2021/06/19 09:07:59;;;;;;;8.18;3.20;;;;;;;35.69;54.58;100520.00;5216584;28;20155;-78
2021/06/19 09:10:36;;;;;;;7.35;3.10;;;;;;;35.26;55.46;100505.31;5220681;28;20083;-78
2021/06/19 09:13:19;;;;;;;6.88;3.05;;;;;;;35.26;56.67;100499.88;5219001;28;20052;-77
2021/06/19 09:15:54;;;;;;;12.55;3.42;;;;;;;36.02;56.79;100501.59;5216469;28;20036;-78
2021/06/19 09:18:25;;;;;;;9.18;3.20;;;;;;;35.33;55.55;100502.56;5217920;28;20441;-78
2021/06/19 09:20:59;;;;;;;6.82;3.17;;;;;;;35.47;57.01;100510.44;5218270;28;20091;-78
2021/06/19 09:23:35;;;;;;;8.10;3.40;;;;;;;34.55;57.00;100507.28;5217309;28;20020;-78
2021/06/19 09:26:15;;;;;;;9.93;3.75;;;;;;;32.95;60.80;100514.50;5217774;28;20045;-78
2021/06/19 09:29:14;;;;;;;8.30;3.42;;;;;;;32.88;61.04;100510.06;5213438;28;20860;-78
2021/06/19 09:31:52;;;;;;;8.48;3.63;;;;;;;32.37;63.15;100505.09;5216547;28;20087;-78
2021/06/19 09:34:28;;;;;;;7.93;3.42;;;;;;;32.35;64.54;100513.38;5216406;28;20036;-78
2021/06/19 09:37:04;;;;;;;9.75;3.80;;;;;;;32.66;63.94;100515.69;5214509;28;20037;-78
2021/06/19 09:39:35;;;;;;;8.52;3.60;;;;;;;32.44;61.46;100508.66;5217821;28;20562;-78
2021/06/19 09:42:07;;;;;;;8.40;3.78;;;;;;;32.15;62.09;100509.63;5213593;28;20042;-77
2021/06/19 09:44:42;;;;;;;8.48;3.70;;;;;;;31.07;63.73;100500.81;5217223;28;20029;-78
2021/06/19 09:47:16;;;;;;;6.93;3.50;;;;;;;31.55;63.95;100501.06;5216066;28;20061;-78
2021/06/19 09:49:48;;;;;;;7.20;3.47;;;;;;;31.72;64.98;100504.41;5221508;28;20419;-78
2021/06/19 09:52:29;;;;;;;11.25;3.25;;;;;;;33.77;58.24;100497.19;5217211;28;20438;-78
2021/06/19 09:55:00;;;;;;;8.23;3.33;;;;;;;35.05;58.21;100497.41;5214128;28;20420;-78
2021/06/19 09:57:42;;;;;;;6.20;3.17;;;;;;;35.19;57.58;100496.34;5212825;28;20183;-79
2021/06/19 10:00:14;;;;;;;7.47;2.78;;;;;;;34.98;57.76;100495.75;5217674;28;20056;-79
2021/06/19 10:02:45;;;;;;;5.70;2.60;;;;;;;35.46;56.45;100497.91;5222235;28;20037;-79
2021/06/19 10:05:15;;;;;;;7.55;2.88;;;;;;;36.63;55.22;100494.44;5214375;28;20060;-79
2021/06/19 10:07:46;;;;;;;7.27;2.77;;;;;;;36.34;55.04;100497.78;5221052;28;20069;-79
2021/06/19 10:10:17;;;;;;;8.05;3.08;;;;;;;35.52;56.40;100494.34;5216028;28;20808;-79
2021/06/19 10:12:48;;;;;;;9.43;3.03;;;;;;;34.32;59.52;100502.28;5213664;28;20088;-79
2021/06/19 10:15:20;;;;;;;9.57;3.33;;;;;;;34.48;57.78;100496.44;5217201;28;20386;-79
2021/06/19 10:17:52;;;;;;;7.70;3.00;;;;;;;34.47;60.81;100496.63;5213860;28;20033;-78
2021/06/19 10:20:23;;;;;;;8.02;3.67;;;;;;;33.68;59.79;100498.34;5216372;28;20031;-78
2021/06/19 10:22:53;;;;;;;8.98;3.42;;;;;;;33.42;59.51;100497.44;5212242;28;20024;-78
2021/06/19 10:25:27;;;;;;;9.02;3.50;;;;;;;32.69;61.54;100499.13;5215175;28;20033;-78
2021/06/19 10:27:57;;;;;;;7.32;3.65;;;;;;;32.78;60.62;100496.06;5219275;28;20091;-78
2021/06/19 10:33:34;;;;;;;8.13;3.15;;;;;;;32.47;61.78;100484.75;5261575;22;20061;-79
2021/06/19 10:36:10;;;;;;;6.20;3.08;;;;;;;32.94;61.92;100476.78;5248716;28;20035;-78
2021/06/19 10:38:55;;;;;;;10.23;3.42;;;;;;;32.90;61.76;100478.19;5256650;28;20040;-79
2021/06/19 10:41:44;;;;;;;8.43;3.38;;;;;;;32.77;61.77;100475.44;5234991;28;20518;-79
2021/06/19 10:44:53;;;;;;;7.35;3.35;;;;;;;32.34;64.44;100468.41;5235976;28;20461;-79
2021/06/19 10:47:47;;;;;;;8.15;3.33;;;;;;;31.89;62.76;100476.09;5230821;28;20084;-78
2021/06/19 10:50:23;;;;;;;7.25;3.35;;;;;;;32.26;62.00;100476.69;5229098;28;20574;-77
2021/06/19 10:53:14;;;;;;;7.60;3.33;;;;;;;32.09;61.13;100464.44;5236405;28;20113;-77
2021/06/19 10:55:52;;;;;;;7.05;3.47;;;;;;;32.09;63.01;100459.03;5232935;28;20577;-77
2021/06/19 10:58:34;;;;;;;7.50;2.92;;;;;;;32.07;61.53;100457.53;5219118;28;20476;-78
2021/06/19 11:01:05;;;;;;;7.15;3.20;;;;;;;32.32;60.27;100448.81;5227488;28;20383;-78
2021/06/19 11:03:54;;;;;;;7.53;2.90;;;;;;;32.48;61.05;100448.53;5226769;28;20037;-78
2021/06/19 11:06:29;;;;;;;7.05;3.15;;;;;;;32.27;60.26;100445.03;5228987;28;20392;-78
2021/06/19 11:09:15;;;;;;;7.30;3.15;;;;;;;32.23;60.13;100443.75;5227910;28;20059;-78
2021/06/19 11:11:56;;;;;;;11.93;2.95;;;;;;;32.21;61.07;100440.41;5227763;28;20056;-78
2021/06/19 11:14:39;;;;;;;7.07;2.80;;;;;;;32.36;60.22;100441.16;5232911;28;20101;-78
2021/06/19 11:17:15;;;;;;;7.40;2.67;;;;;;;32.46;60.94;100437.06;5239625;28;20053;-78
2021/06/19 11:19:51;;;;;;;5.90;2.63;;;;;;;32.41;60.31;100436.81;5240292;28;20465;-78
2021/06/19 11:22:34;;;;;;;8.85;2.55;;;;;;;32.03;58.70;100432.72;5237253;28;20029;-80
2021/06/19 11:25:55;;;;;;;7.25;2.70;;;;;;;31.92;60.62;100430.56;5234144;28;20507;-79
2021/06/19 11:28:26;;;;;;;6.60;2.50;;;;;;;32.03;61.07;100434.63;5240298;28;20032;-80
2021/06/19 11:31:02;;;;;;;5.18;2.22;;;;;;;32.28;56.76;100435.88;5217248;28;20108;-79
2021/06/19 11:33:39;;;;;;;6.05;2.35;;;;;;;31.92;57.90;100433.28;5238655;28;20032;-78
2021/06/19 11:36:12;;;;;;;6.00;2.30;;;;;;;31.82;56.84;100424.63;5235485;28;20048;-79
2021/06/19 11:38:57;;;;;;;6.63;2.13;;;;;;;31.84;58.79;100421.75;5238036;28;20029;-77
2021/06/19 11:41:34;;;;;;;6.25;2.28;;;;;;;31.75;56.95;100418.34;5222680;28;20291;-77
2021/06/19 11:44:13;;;;;;;4.75;2.10;;;;;;;31.55;57.41;100422.66;5228212;28;20025;-78
2021/06/19 11:46:48;;;;;;;5.57;2.00;;;;;;;31.61;60.52;100413.81;5234371;28;20036;-80
2021/06/19 11:49:24;;;;;;;6.15;1.80;;;;;;;31.89;57.76;100414.69;5227821;28;20431;-77